createdAt,value
2019-05-26T00:00:28.551Z,12.57
2019-05-26T00:02:58.791Z,13.23
2019-05-26T00:05:28.961Z,13.77
2019-05-26T00:07:59.195Z,13.43
2019-05-26T00:10:29.336Z,15.13
2019-05-26T00:12:59.468Z,16.27
2019-05-26T00:15:29.698Z,15.80
2019-05-26T00:17:59.879Z,16.97
2019-05-26T00:20:30.069Z,18.03
2019-05-26T00:23:00.232Z,18.63
2019-05-26T00:25:30.444Z,18.43
2019-05-26T00:28:00.721Z,20.20
2019-05-26T00:30:30.800Z,19.57
2019-05-26T00:33:01.001Z,18.20
2019-05-26T00:35:31.282Z,20.13
2019-05-26T00:38:01.546Z,19.17
2019-05-26T00:40:31.741Z,21.10
2019-05-26T00:43:01.916Z,20.47
2019-05-26T00:45:32.157Z,21.10
2019-05-26T00:48:02.387Z,23.30
2019-05-26T00:50:32.536Z,23.70
2019-05-26T00:53:02.738Z,25.77
2019-05-26T00:55:33.073Z,25.47
2019-05-26T00:58:04.375Z,26.90
2019-05-26T01:00:41.890Z,28.50
2019-05-26T01:03:12.266Z,29.93
2019-05-26T01:05:42.505Z,31.33
2019-05-26T01:08:12.746Z,29.43
2019-05-26T01:10:42.939Z,30.67
2019-05-26T01:13:13.134Z,31.57
2019-05-26T01:15:43.522Z,30.33
2019-05-26T01:18:13.786Z,32.60
2019-05-26T01:20:44.009Z,32.27
2019-05-26T01:23:14.184Z,31.37
2019-05-26T01:25:44.727Z,31.37
2019-05-26T01:28:15.000Z,31.17
2019-05-26T01:30:45.428Z,33.00
2019-05-26T01:33:15.661Z,31.87
2019-05-26T01:35:46.854Z,33.87
2019-05-26T01:38:24.101Z,35.13
2019-05-26T01:40:51.964Z,36.33
2019-05-26T01:43:22.173Z,34.87
2019-05-26T01:45:52.301Z,35.97
2019-05-26T01:48:22.501Z,38.90
2019-05-26T01:50:52.724Z,39.77
2019-05-26T01:53:23.004Z,40.90
2019-05-26T01:55:53.232Z,39.53
2019-05-26T01:58:23.471Z,43.23
2019-05-26T02:00:55.767Z,44.17
2019-05-26T02:03:27.009Z,44.00
2019-05-26T02:05:57.298Z,45.33
2019-05-26T02:08:38.844Z,47.50
2019-05-26T02:10:59.502Z,49.73
2019-05-26T02:13:29.653Z,49.27
2019-05-26T02:15:59.909Z,47.90
2019-05-26T02:18:31.728Z,49.40
2019-05-26T02:21:01.851Z,49.43
2019-05-26T02:23:32.053Z,50.20
2019-05-26T02:26:02.226Z,48.80
2019-05-26T02:28:32.557Z,49.93
2019-05-26T02:31:02.762Z,47.60
2019-05-26T02:33:32.978Z,49.03
2019-05-26T02:36:03.130Z,47.43
2019-05-26T02:38:35.782Z,47.87
2019-05-26T02:41:06.256Z,47.10
2019-05-26T02:43:36.405Z,47.03
2019-05-26T02:46:06.720Z,47.57
2019-05-26T02:48:36.908Z,44.87
2019-05-26T02:51:08.064Z,47.23
2019-05-26T02:53:39.826Z,46.53
2019-05-26T02:56:10.032Z,46.13
2019-05-26T02:58:40.855Z,44.30
2019-05-26T03:01:11.081Z,45.00
2019-05-26T03:03:41.291Z,43.00
2019-05-26T03:06:13.049Z,41.37
2019-05-26T03:08:44.851Z,41.00
2019-05-26T03:11:16.345Z,39.70
2019-05-26T03:13:48.681Z,39.30
2019-05-26T03:16:21.229Z,38.80
2019-05-26T03:18:53.150Z,37.63
2019-05-26T03:21:25.073Z,38.07
2019-05-26T03:23:55.236Z,38.53
2019-05-26T03:26:28.391Z,37.43
2019-05-26T03:28:58.531Z,35.93
2019-05-26T03:31:28.736Z,37.47
2019-05-26T03:33:58.875Z,36.07
2019-05-26T03:36:29.046Z,35.97
2019-05-26T03:38:59.304Z,36.77
2019-05-26T03:41:29.522Z,35.97
2019-05-26T03:43:59.813Z,36.37
2019-05-26T03:46:30.014Z,33.87
2019-05-26T03:49:00.210Z,35.30
2019-05-26T03:51:30.364Z,36.50
2019-05-26T03:54:00.533Z,37.13
2019-05-26T03:56:30.904Z,35.57
2019-05-26T03:59:01.120Z,35.57
2019-05-26T04:01:31.314Z,34.97
2019-05-26T04:04:01.503Z,35.67
2019-05-26T04:06:31.672Z,33.43
2019-05-26T04:09:01.832Z,33.93
2019-05-26T04:11:33.231Z,35.90
2019-05-26T04:14:03.304Z,33.87
2019-05-26T04:16:33.427Z,34.43
2019-05-26T04:19:04.422Z,33.47
2019-05-26T04:21:34.540Z,34.80
2019-05-26T04:24:04.676Z,34.60
2019-05-26T04:26:34.883Z,36.27
2019-05-26T04:29:05.158Z,32.40
2019-05-26T04:31:35.312Z,31.03
2019-05-26T04:34:05.576Z,33.67
2019-05-26T04:36:36.680Z,33.47
2019-05-26T04:39:07.761Z,32.50
2019-05-26T04:41:38.047Z,31.37
2019-05-26T04:44:10.573Z,30.63
2019-05-26T04:46:40.833Z,32.13
2019-05-26T04:49:11.017Z,31.27
2019-05-26T04:51:41.177Z,31.80
2019-05-26T04:54:11.378Z,27.97
2019-05-26T04:56:41.573Z,26.43
2019-05-26T04:59:11.792Z,27.10
2019-05-26T05:01:41.976Z,26.83
2019-05-26T05:04:12.154Z,27.67
2019-05-26T05:06:42.410Z,26.33
2019-05-26T05:09:12.540Z,24.37
2019-05-26T05:11:42.785Z,24.30
2019-05-26T05:14:12.945Z,23.57
2019-05-26T05:16:43.183Z,24.70
2019-05-26T05:19:13.432Z,22.17
2019-05-26T05:21:43.610Z,23.03
2019-05-26T05:24:13.807Z,22.03
2019-05-26T05:26:43.946Z,21.23
2019-05-26T05:29:14.144Z,20.20
2019-05-26T05:31:44.365Z,20.33
2019-05-26T05:34:14.541Z,18.80
2019-05-26T05:36:44.719Z,18.30
2019-05-26T05:39:14.824Z,18.73
2019-05-26T05:41:45.086Z,19.43
2019-05-26T05:44:15.240Z,18.07
2019-05-26T05:46:45.382Z,16.97
2019-05-26T05:49:15.513Z,15.63
2019-05-26T05:51:45.742Z,16.03
2019-05-26T05:54:15.877Z,15.10
2019-05-26T05:56:46.114Z,13.47
2019-05-26T05:59:16.327Z,13.57
2019-05-26T06:01:46.596Z,12.70
2019-05-26T06:04:16.926Z,12.50
2019-05-26T06:06:47.305Z,12.40
2019-05-26T06:09:17.586Z,11.23
2019-05-26T06:11:47.841Z,10.00
2019-05-26T06:14:18.049Z,10.37
2019-05-26T06:16:48.193Z,11.63
2019-05-26T06:19:18.594Z,10.97
2019-05-26T06:21:48.804Z,10.60
2019-05-26T06:24:19.106Z,10.30
2019-05-26T06:26:49.381Z,11.00
2019-05-26T06:29:19.774Z,11.13
2019-05-26T06:31:50.329Z,10.53
2019-05-26T06:34:20.602Z,10.07
2019-05-26T06:36:52.385Z,10.30
2019-05-26T06:39:22.504Z,9.33
2019-05-26T06:41:54.372Z,10.00
2019-05-26T06:44:24.595Z,9.27
2019-05-26T06:47:25.441Z,9.80
2019-05-26T06:50:51.239Z,9.70
2019-05-26T06:53:44.265Z,8.93
2019-05-26T06:56:14.528Z,8.97
2019-05-26T06:58:44.744Z,9.50
2019-05-26T07:01:15.932Z,9.50
2019-05-26T07:03:48.133Z,8.97
2019-05-26T07:06:18.370Z,8.87
2019-05-26T07:08:48.526Z,8.73
2019-05-26T07:11:19.357Z,9.57
2019-05-26T07:13:49.602Z,8.83
2019-05-26T07:16:36.506Z,9.37
2019-05-26T07:18:51.645Z,9.80
2019-05-26T07:21:23.477Z,10.93
2019-05-26T07:23:57.766Z,10.03
2019-05-26T07:26:31.070Z,9.60
2019-05-26T07:29:01.248Z,12.13
2019-05-26T07:31:32.343Z,10.77
2019-05-26T07:34:02.678Z,10.30
2019-05-26T07:36:32.921Z,10.83
2019-05-26T07:39:03.113Z,12.53
2019-05-26T07:41:36.471Z,11.70
2019-05-26T07:44:06.689Z,11.97
2019-05-26T07:47:16.874Z,11.57
2019-05-26T07:49:54.971Z,9.40
2019-05-26T07:52:25.190Z,11.67
2019-05-26T07:54:55.503Z,10.30
2019-05-26T07:57:25.688Z,10.27
2019-05-26T07:59:57.641Z,10.63
2019-05-26T08:02:31.438Z,9.70
2019-05-26T08:05:01.622Z,9.60
2019-05-26T08:07:32.039Z,10.10
2019-05-26T08:10:02.320Z,10.17
2019-05-26T08:12:33.632Z,10.80
2019-05-26T08:15:03.772Z,9.97
2019-05-26T08:17:34.119Z,9.47
2019-05-26T08:20:04.967Z,9.80
2019-05-26T08:22:35.304Z,9.70
2019-05-26T08:25:05.817Z,9.37
2019-05-26T08:27:36.083Z,9.07
2019-05-26T08:30:07.667Z,10.85
2019-05-26T08:32:40.646Z,11.13
2019-05-26T08:35:16.239Z,8.27
2019-05-26T08:37:53.881Z,9.00
2019-05-26T08:40:24.353Z,8.17
2019-05-26T08:46:33.662Z,9.10
2019-05-26T08:49:03.897Z,9.40
2019-05-26T08:51:35.694Z,9.87
2019-05-26T08:54:06.059Z,8.90
2019-05-26T08:56:36.258Z,9.73
2019-05-26T08:59:06.606Z,9.63
2019-05-26T09:01:38.034Z,8.63
2019-05-26T09:04:08.251Z,8.73
2019-05-26T09:06:38.495Z,8.57
2019-05-26T09:09:08.672Z,9.27
2019-05-26T09:11:38.951Z,8.67
2019-05-26T09:14:09.266Z,8.93
2019-05-26T09:16:41.162Z,8.30
2019-05-26T09:19:12.591Z,8.10
2019-05-26T09:21:42.859Z,8.23
2019-05-26T09:24:13.057Z,7.87
2019-05-26T09:26:46.481Z,8.57
2019-05-26T09:29:16.649Z,8.35
2019-05-26T09:31:46.919Z,9.25
2019-05-26T09:34:17.273Z,8.50
2019-05-26T09:36:47.619Z,9.38
2019-05-26T09:39:17.728Z,8.97
2019-05-26T09:41:48.535Z,8.43
2019-05-26T09:44:18.749Z,8.23
2019-05-26T09:46:48.987Z,8.30
2019-05-26T09:49:19.163Z,8.80
2019-05-26T09:51:50.471Z,9.23
2019-05-26T09:54:20.696Z,9.20
2019-05-26T09:56:50.889Z,9.40
2019-05-26T09:59:21.074Z,9.33
2019-05-26T10:01:53.019Z,9.07
2019-05-26T10:04:24.810Z,8.53
2019-05-26T10:06:54.962Z,8.53
2019-05-26T10:09:25.231Z,8.80
2019-05-26T10:11:55.496Z,7.67
2019-05-26T10:14:25.811Z,7.77
2019-05-26T10:16:56.024Z,7.85
2019-05-26T10:19:27.422Z,7.87
2019-05-26T10:21:58.684Z,7.30
2019-05-26T10:24:28.919Z,7.00
2019-05-26T10:26:59.228Z,7.50
2019-05-26T10:29:29.500Z,6.62
2019-05-26T10:32:00.070Z,6.77
2019-05-26T10:34:30.275Z,7.23
2019-05-26T10:37:00.465Z,6.00
2019-05-26T10:39:30.688Z,5.53
2019-05-26T10:42:04.235Z,5.47
2019-05-26T10:44:34.164Z,6.30
2019-05-26T10:47:04.366Z,5.70
2019-05-26T10:49:34.589Z,5.30
2019-05-26T10:52:04.834Z,6.10
2019-05-26T10:54:35.147Z,5.33
2019-05-26T10:57:05.489Z,4.20
2019-05-26T10:59:36.810Z,4.60
2019-05-26T11:02:07.248Z,4.47
2019-05-26T11:04:38.281Z,4.08
2019-05-26T11:07:08.569Z,4.30
2019-05-26T11:09:38.770Z,5.10
2019-05-26T11:12:16.787Z,5.30
2019-05-26T11:14:46.980Z,4.47
2019-05-26T11:17:17.199Z,6.03
2019-05-26T11:20:03.566Z,7.33
2019-05-26T11:22:35.267Z,7.33
2019-05-26T11:25:06.277Z,7.33
2019-05-26T11:27:36.496Z,8.03
2019-05-26T11:30:08.571Z,7.97
2019-05-26T11:32:38.788Z,8.08
2019-05-26T11:35:10.076Z,6.90
2019-05-26T11:37:41.210Z,6.63
2019-05-26T11:40:14.962Z,7.22
2019-05-26T11:42:45.398Z,6.87
2019-05-26T11:45:17.535Z,6.90
2019-05-26T11:47:47.842Z,5.73
2019-05-26T11:50:18.427Z,6.37
2019-05-26T11:52:50.410Z,5.83
2019-05-26T11:55:20.849Z,6.37
2019-05-26T11:57:55.517Z,6.03
2019-05-26T12:00:28.284Z,6.23
2019-05-26T12:03:00.452Z,5.83
2019-05-26T12:05:30.375Z,5.12
2019-05-26T12:08:00.526Z,4.97
2019-05-26T12:10:30.768Z,5.13
2019-05-26T12:13:01.043Z,4.15
2019-05-26T12:15:31.500Z,4.50
2019-05-26T12:18:03.564Z,4.90
2019-05-26T12:20:33.766Z,4.67
2019-05-26T12:23:03.987Z,4.33
2019-05-26T12:25:34.170Z,4.10
2019-05-26T12:28:04.409Z,4.28
2019-05-26T12:30:34.992Z,4.60
2019-05-26T12:33:05.228Z,3.73
2019-05-26T12:35:44.350Z,3.63
2019-05-26T12:38:15.142Z,4.40
2019-05-26T12:40:45.579Z,4.43
2019-05-26T12:43:17.620Z,4.10
2019-05-26T12:45:48.098Z,3.52
2019-05-26T12:48:18.347Z,3.53
2019-05-26T12:50:48.594Z,3.58
2019-05-26T12:53:18.836Z,3.27
2019-05-26T12:55:49.123Z,3.13
2019-05-26T12:58:19.304Z,3.50
2019-05-26T13:00:53.864Z,3.23
2019-05-26T13:03:21.403Z,4.22
2019-05-26T13:05:51.609Z,3.97
2019-05-26T13:08:21.760Z,3.90
2019-05-26T13:10:51.895Z,3.90
2019-05-26T13:13:22.050Z,4.20
2019-05-26T13:15:52.264Z,3.57
2019-05-26T13:18:22.454Z,3.70
2019-05-26T13:20:52.654Z,3.58
2019-05-26T13:23:22.839Z,3.40
2019-05-26T13:25:52.978Z,3.83
2019-05-26T13:28:23.146Z,3.35
2019-05-26T13:30:53.298Z,3.87
2019-05-26T13:33:23.454Z,4.53
2019-05-26T13:35:53.594Z,4.57
2019-05-26T13:38:25.364Z,4.43
2019-05-26T13:40:55.504Z,4.15
2019-05-26T13:43:25.756Z,5.70
2019-05-26T13:45:56.000Z,5.17
2019-05-26T13:48:26.178Z,5.40
2019-05-26T13:50:56.423Z,5.20
2019-05-26T13:53:26.693Z,5.40
2019-05-26T13:55:56.850Z,4.70
2019-05-26T13:58:32.625Z,6.00
2019-05-26T14:01:04.463Z,4.70
2019-05-26T14:03:37.604Z,4.33
2019-05-26T14:07:26.188Z,5.63
2019-05-26T14:09:49.575Z,4.67
2019-05-26T14:12:46.322Z,4.83
2019-05-26T14:15:34.922Z,4.60
2019-05-26T14:18:23.570Z,4.50
2019-05-26T14:21:12.401Z,4.70
2019-05-26T14:23:50.483Z,4.53
2019-05-26T14:26:42.571Z,5.07
2019-05-26T14:29:31.357Z,4.23
2019-05-26T14:33:03.785Z,3.93
2019-05-26T14:35:46.119Z,3.70
2019-05-26T14:38:58.370Z,4.67
2019-05-26T14:41:50.575Z,5.33
2019-05-26T14:44:38.587Z,5.03
2019-05-26T14:47:44.742Z,4.10
2019-05-26T14:51:04.567Z,3.93
2019-05-26T14:54:00.884Z,4.27
2019-05-26T14:56:42.228Z,4.73
2019-05-26T14:59:20.767Z,4.78
2019-05-26T15:02:08.899Z,4.60
2019-05-26T15:05:05.638Z,5.60
2019-05-26T15:08:12.487Z,5.40
2019-05-26T15:14:46.527Z,5.50
2019-05-26T15:17:38.620Z,6.07
2019-05-26T15:20:26.698Z,6.10
2019-05-26T15:23:27.947Z,6.43
2019-05-26T15:26:30.945Z,6.37
2019-05-26T15:29:42.987Z,6.53
2019-05-26T15:32:54.697Z,6.43
2019-05-26T15:35:45.030Z,6.63
2019-05-26T15:39:18.035Z,6.10
2019-05-26T15:42:22.259Z,6.53
2019-05-26T15:49:21.699Z,5.83
2019-05-26T15:52:32.803Z,5.40
2019-05-26T15:59:24.766Z,4.50
2019-05-26T16:05:28.283Z,4.07
2019-05-26T16:08:00.070Z,4.50
2019-05-26T16:13:58.425Z,3.23
2019-05-26T16:16:41.367Z,3.90
2019-05-26T16:19:23.049Z,3.27
2019-05-26T16:21:59.102Z,3.27
2019-05-26T16:24:32.804Z,3.03
2019-05-26T16:27:18.758Z,2.77
2019-05-26T16:29:37.829Z,2.73
2019-05-26T16:32:08.049Z,2.47
2019-05-26T16:34:42.161Z,3.07
2019-05-26T16:37:14.566Z,3.10
2019-05-26T16:39:46.116Z,2.60
2019-05-26T16:42:21.925Z,3.47
2019-05-26T16:44:52.152Z,2.80
2019-05-26T16:47:22.355Z,2.80
2019-05-26T16:49:52.611Z,2.43
2019-05-26T16:52:29.346Z,3.13
2019-05-26T16:54:59.336Z,3.03
2019-05-26T16:57:31.429Z,3.20
2019-05-26T17:00:08.024Z,2.17
2019-05-26T17:02:41.272Z,2.80
2019-05-26T17:05:11.678Z,3.33
2019-05-26T17:07:41.943Z,3.23
2019-05-26T17:10:16.216Z,2.97
2019-05-26T17:12:46.420Z,2.77
2019-05-26T17:15:16.998Z,3.00
2019-05-26T17:17:47.266Z,3.03
2019-05-26T17:20:18.327Z,4.00
2019-05-26T17:22:49.060Z,3.27
2019-05-26T17:25:19.264Z,3.73
2019-05-26T17:27:50.548Z,3.67
2019-05-26T17:30:22.242Z,2.80
2019-05-26T17:32:56.097Z,3.63
2019-05-26T17:35:26.333Z,3.70
2019-05-26T17:37:58.210Z,3.40
2019-05-26T17:40:33.908Z,4.57
2019-05-26T17:43:04.317Z,4.53
2019-05-26T17:45:34.550Z,5.03
2019-05-26T17:48:06.439Z,5.53
2019-05-26T17:50:39.141Z,5.07
2019-05-26T17:53:09.402Z,5.40
2019-05-26T17:55:40.580Z,5.33
2019-05-26T17:58:34.461Z,5.33
2019-05-26T18:01:17.265Z,6.27
2019-05-26T18:03:47.674Z,5.63
2019-05-26T18:06:19.828Z,7.93
2019-05-26T18:08:50.005Z,7.70
2019-05-26T18:11:22.871Z,6.90
2019-05-26T18:13:54.350Z,7.13
2019-05-26T18:16:26.497Z,7.77
2019-05-26T18:18:59.517Z,7.73
2019-05-26T18:21:29.672Z,9.13
2019-05-26T18:24:00.796Z,9.13
2019-05-26T18:26:31.006Z,8.90
2019-05-26T18:29:01.246Z,9.53
2019-05-26T18:31:31.397Z,9.43
2019-05-26T18:34:10.834Z,10.43
2019-05-26T18:36:42.575Z,12.00
2019-05-26T18:39:14.975Z,11.93
2019-05-26T18:41:45.208Z,12.10
2019-05-26T18:44:18.287Z,12.07
2019-05-26T18:46:53.353Z,12.43
2019-05-26T18:49:26.304Z,13.40
2019-05-26T18:51:58.192Z,14.00
2019-05-26T18:54:28.384Z,12.47
2019-05-26T18:56:58.551Z,11.10
2019-05-26T18:59:30.188Z,11.57
2019-05-26T19:02:02.527Z,10.20
2019-05-26T19:04:34.317Z,9.23
2019-05-26T19:07:05.659Z,8.10
2019-05-26T19:09:41.076Z,6.97
2019-05-26T19:12:30.442Z,6.53
2019-05-26T19:15:24.851Z,7.30
2019-05-26T19:18:20.292Z,6.47
2019-05-26T19:20:54.285Z,5.30
2019-05-26T19:24:22.302Z,5.00
2019-05-26T19:26:34.666Z,6.23
2019-05-26T19:30:28.571Z,6.10
2019-05-26T19:36:40.195Z,6.97
2019-05-26T19:39:34.957Z,7.40
2019-05-26T19:42:12.578Z,8.10
2019-05-26T19:44:55.799Z,7.37
2019-05-26T19:47:43.112Z,8.90
2019-05-26T19:50:35.109Z,7.77
2019-05-26T19:53:32.455Z,7.70
2019-05-26T19:56:03.161Z,8.13
2019-05-26T19:58:33.464Z,9.97
2019-05-26T20:01:05.593Z,9.53
2019-05-26T20:03:35.787Z,7.97
2019-05-26T20:06:06.313Z,8.87
2019-05-26T20:08:36.614Z,8.77
2019-05-26T20:11:08.703Z,9.37
2019-05-26T20:13:39.051Z,9.30
2019-05-26T20:16:09.270Z,10.73
2019-05-26T20:18:39.494Z,13.07
2019-05-26T20:21:09.664Z,11.40
2019-05-26T20:23:40.042Z,12.03
2019-05-26T20:26:10.258Z,12.90
2019-05-26T20:28:40.494Z,12.30
2019-05-26T20:31:10.726Z,11.70
2019-05-26T20:33:40.918Z,11.10
2019-05-26T20:36:11.155Z,10.83
2019-05-26T20:38:41.377Z,11.40
2019-05-26T20:41:11.642Z,11.50
2019-05-26T20:43:44.580Z,11.67
2019-05-26T20:46:14.786Z,11.63
2019-05-26T20:48:45.069Z,14.83
2019-05-26T20:51:17.261Z,24.47
2019-05-26T20:53:47.351Z,32.43
2019-05-26T20:56:17.526Z,14.40
2019-05-26T20:58:47.950Z,13.83
2019-05-26T21:01:18.146Z,13.93
2019-05-26T21:03:48.409Z,22.60
2019-05-26T21:06:18.658Z,21.53
2019-05-26T21:08:48.838Z,17.97
2019-05-26T21:11:21.540Z,18.17
2019-05-26T21:13:51.730Z,17.27
2019-05-26T21:16:21.929Z,13.73
2019-05-26T21:18:52.907Z,15.00
2019-05-26T21:21:23.072Z,14.43
2019-05-26T21:23:53.231Z,24.37
2019-05-26T21:26:23.369Z,16.17
2019-05-26T21:28:53.679Z,24.00
2019-05-26T21:31:23.889Z,15.77
2019-05-26T21:33:54.277Z,14.83
2019-05-26T21:36:25.473Z,16.60
2019-05-26T21:38:55.699Z,14.73
2019-05-26T21:41:32.745Z,15.70
2019-05-26T21:44:06.410Z,15.90
2019-05-26T21:46:36.612Z,15.13
2019-05-26T21:49:12.143Z,13.40
2019-05-26T21:51:46.104Z,13.40
2019-05-26T21:54:16.395Z,12.07
2019-05-26T21:56:46.704Z,12.13
2019-05-26T21:59:19.438Z,11.30
2019-05-26T22:01:52.293Z,11.10
2019-05-26T22:04:28.518Z,10.03
2019-05-26T22:06:59.091Z,10.17
2019-05-26T22:09:32.796Z,9.50
2019-05-26T22:12:02.991Z,8.43
2019-05-26T22:14:37.270Z,9.07
2019-05-26T22:17:10.545Z,9.07
2019-05-26T22:19:46.591Z,8.80
2019-05-26T22:22:17.607Z,9.80
2019-05-26T22:24:50.302Z,8.77
2019-05-26T22:27:23.649Z,8.73
2019-05-26T22:29:58.316Z,8.43
2019-05-26T22:32:32.577Z,8.30
2019-05-26T22:35:13.954Z,8.17
2019-05-26T22:37:45.816Z,8.60
2019-05-26T22:40:19.469Z,8.97
2019-05-26T22:42:52.559Z,8.47
2019-05-26T22:45:23.009Z,8.07
2019-05-26T22:47:56.324Z,7.93
2019-05-26T22:50:31.960Z,7.70
2019-05-26T22:53:03.920Z,7.27
2019-05-26T22:55:34.068Z,6.83
2019-05-26T22:58:04.249Z,7.07
2019-05-26T23:00:34.387Z,6.57
2019-05-26T23:03:04.582Z,7.43
2019-05-26T23:05:34.767Z,7.37
2019-05-26T23:08:05.098Z,6.60
2019-05-26T23:10:35.251Z,6.30
2019-05-26T23:13:05.425Z,6.23
2019-05-26T23:15:35.706Z,6.63
2019-05-26T23:18:06.655Z,6.60
2019-05-26T23:20:36.839Z,6.37
2019-05-26T23:23:07.062Z,6.03
2019-05-26T23:25:37.301Z,6.10
2019-05-26T23:28:07.510Z,6.67
2019-05-26T23:30:38.788Z,6.23
2019-05-26T23:33:09.175Z,5.90
2019-05-26T23:35:39.393Z,5.30
2019-05-26T23:38:09.567Z,5.40
2019-05-26T23:40:39.947Z,5.07
2019-05-26T23:43:10.098Z,4.87
2019-05-26T23:45:40.282Z,4.10
2019-05-26T23:48:10.532Z,4.33
2019-05-26T23:50:41.073Z,4.40
2019-05-26T23:53:11.280Z,3.57
2019-05-26T23:55:41.439Z,3.63
2019-05-26T23:58:11.627Z,3.70
